createdAt,value
2019-01-17T00:00:28.656Z,99.90
2019-01-17T00:02:18.984Z,99.90
2019-01-17T00:04:07.964Z,99.90
2019-01-17T00:06:02.180Z,99.90
2019-01-17T00:08:14.332Z,99.90
2019-01-17T00:10:07.497Z,99.90
2019-01-17T00:12:04.878Z,99.90
2019-01-17T00:14:01.412Z,99.90
2019-01-17T00:15:58.734Z,99.90
2019-01-17T00:17:43.575Z,99.90
2019-01-17T00:19:30.888Z,99.90
2019-01-17T00:21:21.083Z,99.90
2019-01-17T00:23:07.378Z,99.90
2019-01-17T00:25:00.356Z,99.90
2019-01-17T00:26:43.754Z,99.90
2019-01-17T00:28:36.903Z,99.90
2019-01-17T00:30:34.147Z,99.90
2019-01-17T00:32:37.244Z,99.90
2019-01-17T00:34:35.516Z,99.90
2019-01-17T00:36:20.128Z,99.90
2019-01-17T00:38:23.004Z,99.90
2019-01-17T00:40:07.792Z,99.90
2019-01-17T00:42:06.587Z,99.90
2019-01-17T00:43:59.741Z,99.90
2019-01-17T00:45:49.393Z,99.90
2019-01-17T00:47:46.564Z,99.90
2019-01-17T00:49:40.411Z,99.90
2019-01-17T00:51:39.723Z,99.90
2019-01-17T00:53:31.448Z,99.90
2019-01-17T00:55:31.983Z,99.90
2019-01-17T00:57:31.640Z,99.90
2019-01-17T00:59:22.889Z,99.90
2019-01-17T01:01:16.038Z,99.90
2019-01-17T01:03:15.690Z,99.90
2019-01-17T01:05:12.492Z,99.90
2019-01-17T01:07:10.465Z,99.90
2019-01-17T01:08:58.564Z,99.90
2019-01-17T01:10:51.005Z,99.90
2019-01-17T01:12:41.315Z,99.90
2019-01-17T01:14:48.389Z,99.90
2019-01-17T01:16:48.297Z,99.90
2019-01-17T01:18:40.432Z,99.90
2019-01-17T01:20:24.653Z,99.90
2019-01-17T01:22:30.605Z,99.90
2019-01-17T01:24:33.338Z,99.90
2019-01-17T01:26:33.211Z,99.90
2019-01-17T01:28:32.961Z,99.90
2019-01-17T01:30:31.699Z,99.90
2019-01-17T01:32:32.765Z,99.90
2019-01-17T01:34:24.438Z,99.90
2019-01-17T01:36:18.639Z,99.90
2019-01-17T01:38:15.655Z,99.90
2019-01-17T01:40:21.122Z,99.90
2019-01-17T01:42:11.541Z,99.90
2019-01-17T01:44:08.041Z,99.90
2019-01-17T01:46:14.299Z,99.90
2019-01-17T01:48:07.164Z,99.90
2019-01-17T01:50:00.194Z,99.90
2019-01-17T01:51:52.663Z,99.90
2019-01-17T01:53:27.462Z,99.90
2019-01-17T01:55:02.276Z,99.90
2019-01-17T01:56:37.055Z,99.90
2019-01-17T01:58:12.231Z,99.90
2019-01-17T01:59:47.343Z,99.90
2019-01-17T02:01:22.545Z,99.90
2019-01-17T02:02:57.652Z,99.90
2019-01-17T02:04:33.057Z,99.90
2019-01-17T02:06:07.990Z,99.90
2019-01-17T02:07:43.118Z,99.90
2019-01-17T02:09:18.348Z,99.90
2019-01-17T02:10:53.789Z,99.90
2019-01-17T02:12:28.727Z,99.90
2019-01-17T02:14:04.715Z,99.90
2019-01-17T02:15:39.501Z,99.90
2019-01-17T02:17:14.683Z,99.90
2019-01-17T02:18:49.841Z,99.90
2019-01-17T02:20:24.752Z,99.90
2019-01-17T02:21:59.874Z,99.90
2019-01-17T02:23:35.246Z,99.90
2019-01-17T02:25:10.339Z,99.90
2019-01-17T02:26:46.298Z,99.90
2019-01-17T02:28:21.192Z,99.90
2019-01-17T02:29:56.189Z,99.90
2019-01-17T02:31:30.991Z,99.90
2019-01-17T02:33:05.904Z,99.90
2019-01-17T02:34:40.809Z,99.90
2019-01-17T02:36:15.621Z,99.90
2019-01-17T02:37:51.040Z,99.90
2019-01-17T02:39:25.859Z,99.90
2019-01-17T02:41:01.065Z,99.90
2019-01-17T02:42:36.033Z,99.90
2019-01-17T02:44:11.053Z,99.90
2019-01-17T02:45:46.326Z,99.90
2019-01-17T02:47:21.131Z,99.90
2019-01-17T02:48:56.283Z,99.90
2019-01-17T02:50:31.177Z,99.90
2019-01-17T02:52:06.124Z,99.90
2019-01-17T02:53:41.001Z,99.90
2019-01-17T02:55:15.890Z,99.90
2019-01-17T02:56:50.750Z,98.90
2019-01-17T02:58:25.800Z,97.90
2019-01-17T03:00:00.865Z,96.90
2019-01-17T03:01:35.681Z,96.10
2019-01-17T03:03:10.482Z,94.90
2019-01-17T03:04:45.630Z,94.90
2019-01-17T03:06:20.975Z,93.80
2019-01-17T03:07:55.930Z,93.90
2019-01-17T03:09:31.135Z,93.30
2019-01-17T03:11:06.137Z,92.90
2019-01-17T03:12:41.328Z,93.40
2019-01-17T03:14:16.524Z,93.40
2019-01-17T03:15:51.373Z,93.30
2019-01-17T03:17:26.210Z,92.70
2019-01-17T03:19:01.085Z,92.90
2019-01-17T03:20:36.349Z,92.80
2019-01-17T03:22:11.551Z,92.60
2019-01-17T03:23:46.379Z,92.50
2019-01-17T03:25:21.329Z,92.60
2019-01-17T03:26:56.133Z,92.50
2019-01-17T03:28:31.262Z,92.30
2019-01-17T03:30:14.186Z,92.10
2019-01-17T03:31:49.318Z,91.60
2019-01-17T03:33:24.541Z,91.60
2019-01-17T03:34:59.413Z,91.30
2019-01-17T03:36:34.271Z,91.90
2019-01-17T03:38:09.629Z,91.50
2019-01-17T03:39:44.385Z,91.60
2019-01-17T03:41:19.214Z,91.40
2019-01-17T03:42:54.038Z,91.20
2019-01-17T03:44:28.826Z,91.00
2019-01-17T03:46:03.699Z,91.50
2019-01-17T03:47:38.689Z,91.20
2019-01-17T03:49:14.127Z,91.50
2019-01-17T03:50:49.753Z,91.50
2019-01-17T03:52:24.551Z,91.40
2019-01-17T03:53:59.773Z,91.40
2019-01-17T03:55:35.226Z,90.90
2019-01-17T03:57:10.032Z,91.20
2019-01-17T03:58:44.873Z,91.40
2019-01-17T04:00:22.152Z,91.40
2019-01-17T04:01:57.385Z,91.30
2019-01-17T04:03:32.521Z,91.40
2019-01-17T04:05:09.002Z,91.10
2019-01-17T04:06:43.797Z,91.30
2019-01-17T04:08:18.931Z,91.20
2019-01-17T04:09:53.753Z,91.40
2019-01-17T04:11:28.994Z,91.50
2019-01-17T04:13:04.119Z,91.30
2019-01-17T04:14:39.249Z,91.00
2019-01-17T04:16:14.447Z,91.30
2019-01-17T04:17:49.674Z,91.10
2019-01-17T04:19:24.499Z,91.40
2019-01-17T04:20:59.295Z,91.20
2019-01-17T04:22:34.116Z,91.60
2019-01-17T04:24:08.964Z,91.30
2019-01-17T04:25:43.758Z,91.80
2019-01-17T04:27:18.963Z,91.70
2019-01-17T04:28:54.092Z,91.80
2019-01-17T04:30:29.191Z,91.60
2019-01-17T04:32:04.064Z,91.80
2019-01-17T04:33:39.179Z,91.50
2019-01-17T04:35:14.361Z,91.50
2019-01-17T04:36:49.437Z,91.30
2019-01-17T04:38:24.438Z,91.50
2019-01-17T04:39:59.552Z,91.50
2019-01-17T04:41:34.360Z,91.40
2019-01-17T04:43:09.566Z,91.50
2019-01-17T04:44:44.675Z,91.30
2019-01-17T04:46:19.455Z,91.40
2019-01-17T04:47:54.319Z,91.50
2019-01-17T04:49:29.448Z,91.40
2019-01-17T04:51:04.442Z,91.50
2019-01-17T04:52:39.301Z,91.20
2019-01-17T04:54:14.437Z,91.20
2019-01-17T04:55:49.481Z,91.10
2019-01-17T04:57:24.614Z,91.00
2019-01-17T04:58:59.583Z,91.30
2019-01-17T05:00:34.645Z,91.20
2019-01-17T05:02:09.538Z,91.10
2019-01-17T05:03:44.586Z,91.20
2019-01-17T05:05:19.848Z,91.20
2019-01-17T05:06:54.998Z,91.20
2019-01-17T05:08:30.207Z,91.30
2019-01-17T05:10:06.456Z,91.20
2019-01-17T05:11:41.588Z,91.30
2019-01-17T05:13:16.469Z,91.40
2019-01-17T05:14:51.233Z,91.20
2019-01-17T05:16:26.017Z,91.10
2019-01-17T05:18:01.188Z,91.50
2019-01-17T05:19:36.035Z,91.40
2019-01-17T05:21:10.895Z,91.30
2019-01-17T05:22:46.152Z,91.40
2019-01-17T05:24:21.820Z,91.50
2019-01-17T05:25:57.758Z,91.70
2019-01-17T05:27:32.575Z,91.20
2019-01-17T05:29:07.409Z,91.80
2019-01-17T05:30:42.737Z,91.60
2019-01-17T05:32:17.542Z,91.20
2019-01-17T05:33:52.371Z,91.50
2019-01-17T05:35:27.203Z,91.40
2019-01-17T05:37:02.551Z,91.30
2019-01-17T05:38:37.387Z,91.30
2019-01-17T05:40:16.560Z,91.30
2019-01-17T05:41:51.834Z,91.60
2019-01-17T05:43:26.700Z,91.60
2019-01-17T05:45:01.888Z,91.80
2019-01-17T05:46:36.725Z,91.80
2019-01-17T05:48:11.534Z,91.60
2019-01-17T05:49:46.761Z,92.00
2019-01-17T05:51:21.891Z,92.00
2019-01-17T05:52:56.762Z,92.30
2019-01-17T05:54:31.995Z,92.40
2019-01-17T05:56:06.799Z,92.40
2019-01-17T05:57:41.602Z,92.70
2019-01-17T05:59:16.407Z,92.70
2019-01-17T06:00:51.283Z,92.60
2019-01-17T06:02:26.189Z,92.80
2019-01-17T06:04:01.402Z,92.60
2019-01-17T06:05:37.539Z,92.70
2019-01-17T06:07:12.799Z,92.70
2019-01-17T06:08:47.917Z,92.90
2019-01-17T06:10:23.048Z,92.80
2019-01-17T06:11:58.174Z,92.90
2019-01-17T06:13:33.333Z,92.70
2019-01-17T06:15:08.685Z,92.90
2019-01-17T06:16:43.555Z,93.00
2019-01-17T06:18:18.332Z,92.80
2019-01-17T06:19:53.229Z,93.00
2019-01-17T06:21:28.252Z,93.00
2019-01-17T06:23:03.370Z,93.10
2019-01-17T06:24:38.167Z,93.10
2019-01-17T06:26:13.843Z,93.10
2019-01-17T06:27:48.792Z,93.00
2019-01-17T06:29:24.303Z,92.90
2019-01-17T06:30:59.140Z,93.00
2019-01-17T06:32:38.348Z,92.90
2019-01-17T06:34:14.071Z,93.10
2019-01-17T06:35:48.834Z,93.20
2019-01-17T06:37:24.259Z,93.40
2019-01-17T06:38:59.621Z,93.30
2019-01-17T06:40:34.919Z,93.00
2019-01-17T06:42:10.570Z,93.00
2019-01-17T06:43:45.344Z,92.90
2019-01-17T06:45:20.417Z,92.60
2019-01-17T06:46:55.246Z,92.90
2019-01-17T06:48:30.094Z,92.70
2019-01-17T06:50:06.931Z,92.90
2019-01-17T06:51:42.305Z,93.10
2019-01-17T06:53:17.465Z,92.90
2019-01-17T06:54:52.633Z,92.90
2019-01-17T06:56:27.409Z,92.90
2019-01-17T06:58:02.422Z,92.60
2019-01-17T06:59:37.523Z,92.60
2019-01-17T07:01:13.124Z,92.70
2019-01-17T07:02:48.702Z,92.60
2019-01-17T07:04:23.502Z,92.80
2019-01-17T07:05:58.611Z,92.60
2019-01-17T07:07:33.808Z,92.70
2019-01-17T07:09:09.768Z,92.50
2019-01-17T07:10:44.859Z,92.60
2019-01-17T07:12:20.307Z,93.00
2019-01-17T07:13:55.076Z,93.00
2019-01-17T07:15:30.189Z,93.20
2019-01-17T07:17:05.072Z,93.30
2019-01-17T07:18:39.848Z,93.30
2019-01-17T07:20:16.741Z,93.60
2019-01-17T07:21:52.226Z,93.80
2019-01-17T07:23:27.157Z,93.90
2019-01-17T07:25:02.258Z,94.30
2019-01-17T07:26:37.025Z,94.20
2019-01-17T07:28:12.129Z,94.20
2019-01-17T07:29:47.287Z,94.40
2019-01-17T07:31:22.496Z,94.30
2019-01-17T07:32:57.576Z,94.30
2019-01-17T07:34:32.405Z,94.30
2019-01-17T07:36:07.179Z,94.60
2019-01-17T07:37:42.158Z,94.50
2019-01-17T07:39:16.945Z,94.50
2019-01-17T07:40:52.142Z,94.00
2019-01-17T07:42:27.248Z,94.10
2019-01-17T07:44:02.016Z,93.70
2019-01-17T07:45:37.423Z,93.70
2019-01-17T07:47:12.549Z,93.60
2019-01-17T07:48:47.338Z,93.50
2019-01-17T07:50:22.810Z,93.70
2019-01-17T07:51:57.696Z,94.00
2019-01-17T07:53:33.073Z,93.30
2019-01-17T07:55:09.653Z,93.30
2019-01-17T07:56:45.385Z,93.40
2019-01-17T07:58:20.437Z,93.00
2019-01-17T07:59:55.232Z,93.00
2019-01-17T08:01:30.365Z,93.00
2019-01-17T08:03:05.507Z,92.80
2019-01-17T08:04:40.613Z,92.80
2019-01-17T08:06:15.468Z,92.40
2019-01-17T08:07:51.004Z,92.50
2019-01-17T08:09:26.182Z,92.30
2019-01-17T08:11:01.561Z,92.80
2019-01-17T08:12:36.625Z,92.70
2019-01-17T08:14:12.220Z,92.50
2019-01-17T08:15:47.030Z,92.40
2019-01-17T08:17:21.806Z,92.40
2019-01-17T08:18:56.844Z,92.30
2019-01-17T08:20:31.712Z,92.30
2019-01-17T08:22:07.363Z,92.00
2019-01-17T08:23:42.504Z,92.00
2019-01-17T08:25:17.449Z,92.00
2019-01-17T08:26:52.549Z,92.00
2019-01-17T08:28:27.339Z,92.20
2019-01-17T08:30:02.099Z,91.90
2019-01-17T08:31:36.917Z,92.70
2019-01-17T08:33:11.686Z,92.00
2019-01-17T08:34:46.781Z,92.20
2019-01-17T08:36:22.009Z,92.00
2019-01-17T08:37:57.045Z,92.00
2019-01-17T08:39:32.462Z,92.00
2019-01-17T08:41:07.351Z,91.90
2019-01-17T08:42:42.148Z,92.00
2019-01-17T08:44:16.886Z,91.80
2019-01-17T08:45:52.340Z,91.90
2019-01-17T08:47:27.508Z,91.60
2019-01-17T08:49:02.359Z,92.20
2019-01-17T08:50:37.350Z,92.00
2019-01-17T08:52:12.595Z,91.90
2019-01-17T08:53:47.370Z,92.10
2019-01-17T08:55:22.154Z,92.00
2019-01-17T08:56:57.462Z,92.20
2019-01-17T08:58:32.248Z,92.00
2019-01-17T09:00:11.191Z,91.90
2019-01-17T09:01:46.340Z,91.90
2019-01-17T09:03:21.466Z,91.80
2019-01-17T09:04:56.252Z,91.80
2019-01-17T09:06:31.381Z,92.10
2019-01-17T09:08:06.757Z,92.30
2019-01-17T09:09:41.549Z,92.00
2019-01-17T09:11:16.704Z,91.70
2019-01-17T09:12:51.978Z,92.10
2019-01-17T09:14:26.768Z,91.90
2019-01-17T09:16:02.397Z,91.80
2019-01-17T09:17:37.537Z,91.90
2019-01-17T09:19:12.685Z,92.10
2019-01-17T09:20:47.458Z,92.00
2019-01-17T09:22:22.628Z,91.90
2019-01-17T09:23:57.748Z,92.60
2019-01-17T09:25:32.528Z,92.00
2019-01-17T09:27:07.601Z,91.90
2019-01-17T09:28:42.445Z,92.10
2019-01-17T09:30:18.599Z,92.00
2019-01-17T09:31:53.448Z,92.10
2019-01-17T09:33:28.211Z,92.10
2019-01-17T09:35:03.150Z,91.80
2019-01-17T09:36:38.005Z,92.40
2019-01-17T09:38:12.769Z,92.10
2019-01-17T09:39:47.563Z,92.50
2019-01-17T09:41:22.414Z,92.60
2019-01-17T09:42:57.840Z,92.20
2019-01-17T09:44:33.044Z,92.50
2019-01-17T09:46:07.817Z,92.40
2019-01-17T09:47:43.174Z,92.30
2019-01-17T09:49:17.945Z,92.10
2019-01-17T09:50:52.733Z,92.50
2019-01-17T09:52:27.841Z,92.40
2019-01-17T09:54:02.722Z,92.30
2019-01-17T09:55:37.531Z,92.40
2019-01-17T09:57:12.828Z,92.50
2019-01-17T09:58:47.598Z,92.40
2019-01-17T10:00:30.965Z,92.80
2019-01-17T10:02:05.879Z,92.30
2019-01-17T10:03:40.939Z,92.50
2019-01-17T10:05:16.459Z,92.70
2019-01-17T10:06:51.595Z,92.70
2019-01-17T10:08:26.359Z,93.00
2019-01-17T10:10:01.754Z,93.20
2019-01-17T10:11:36.621Z,93.40
2019-01-17T10:13:11.709Z,94.10
2019-01-17T10:14:46.501Z,93.70
2019-01-17T10:17:30.426Z,94.00
2019-01-17T10:19:47.489Z,94.20
2019-01-17T10:22:13.237Z,94.40
2019-01-17T10:24:41.582Z,94.40
2019-01-17T10:26:34.272Z,94.30
2019-01-17T10:28:51.549Z,94.60
2019-01-17T10:31:28.974Z,94.10
2019-01-17T10:33:21.503Z,93.90
2019-01-17T10:35:48.743Z,93.90
2019-01-17T10:38:28.952Z,94.30
2019-01-17T10:40:48.656Z,94.70
2019-01-17T10:43:21.933Z,94.30
2019-01-17T10:45:29.483Z,93.90
2019-01-17T10:48:13.019Z,94.00
2019-01-17T10:50:24.659Z,94.00
2019-01-17T10:53:09.632Z,94.20
2019-01-17T10:55:44.660Z,93.90
2019-01-17T10:58:00.814Z,93.30
2019-01-17T10:59:43.977Z,92.70
2019-01-17T11:01:56.244Z,93.00
2019-01-17T11:04:15.158Z,92.70
2019-01-17T11:06:29.521Z,93.40
2019-01-17T11:08:21.418Z,92.80
2019-01-17T11:10:36.916Z,93.00
2019-01-17T11:12:48.669Z,93.30
2019-01-17T11:14:41.443Z,92.90
2019-01-17T11:16:43.169Z,92.80
2019-01-17T11:19:23.644Z,92.60
2019-01-17T11:22:13.444Z,92.60
2019-01-17T11:24:18.271Z,92.20
2019-01-17T11:26:34.578Z,92.20
2019-01-17T11:28:42.622Z,91.90
2019-01-17T11:31:03.746Z,91.90
2019-01-17T11:33:04.647Z,91.90
2019-01-17T11:35:39.025Z,91.60
2019-01-17T11:37:44.647Z,91.40
2019-01-17T11:40:05.316Z,91.00
2019-01-17T11:42:40.780Z,91.50
2019-01-17T11:44:44.620Z,91.30
2019-01-17T11:47:21.671Z,91.30
2019-01-17T11:49:59.523Z,90.90
2019-01-17T11:52:12.953Z,91.60
2019-01-17T11:54:23.770Z,91.90
2019-01-17T11:56:33.029Z,91.70
2019-01-17T11:58:44.225Z,91.40
2019-01-17T12:01:10.158Z,91.20
2019-01-17T12:03:23.368Z,90.70
2019-01-17T12:04:56.270Z,91.10
2019-01-17T12:06:31.127Z,89.90
2019-01-17T12:08:05.994Z,89.80
2019-01-17T12:09:41.091Z,90.50
2019-01-17T12:11:15.877Z,90.60
2019-01-17T12:12:50.975Z,90.70
2019-01-17T12:14:25.926Z,90.50
2019-01-17T12:16:01.269Z,90.30
2019-01-17T12:17:36.178Z,90.30
2019-01-17T12:19:11.242Z,89.20
2019-01-17T12:20:46.349Z,89.50
2019-01-17T12:22:21.506Z,90.40
2019-01-17T12:23:56.383Z,90.50
2019-01-17T12:25:31.484Z,90.50
2019-01-17T12:27:06.358Z,90.60
2019-01-17T12:28:41.187Z,90.90
2019-01-17T12:30:16.958Z,90.70
2019-01-17T12:31:51.761Z,91.30
2019-01-17T12:33:27.521Z,91.40
2019-01-17T12:35:02.330Z,91.80
2019-01-17T12:36:37.573Z,91.80
2019-01-17T12:38:12.387Z,91.70
2019-01-17T12:39:47.198Z,91.80
2019-01-17T12:41:22.584Z,91.80
2019-01-17T12:42:57.894Z,91.80
2019-01-17T12:44:32.719Z,91.90
2019-01-17T12:46:07.567Z,92.30
2019-01-17T12:47:43.065Z,91.90
2019-01-17T12:49:17.873Z,91.60
2019-01-17T12:50:53.537Z,91.80
2019-01-17T12:52:28.343Z,91.80
2019-01-17T12:54:03.203Z,91.80
2019-01-17T12:55:38.122Z,91.70
2019-01-17T12:57:13.244Z,92.00
2019-01-17T12:58:48.989Z,92.00
2019-01-17T13:00:23.952Z,92.50
2019-01-17T13:01:59.063Z,92.40
2019-01-17T13:03:34.482Z,92.60
2019-01-17T13:05:09.854Z,92.40
2019-01-17T13:06:44.698Z,92.30
2019-01-17T13:08:19.488Z,92.30
2019-01-17T13:09:54.810Z,92.00
2019-01-17T13:11:29.922Z,91.90
2019-01-17T13:13:04.743Z,91.60
2019-01-17T13:14:39.543Z,91.60
2019-01-17T13:16:14.401Z,91.40
2019-01-17T13:17:49.303Z,91.30
2019-01-17T13:19:24.098Z,90.40
2019-01-17T13:20:59.386Z,90.10
2019-01-17T13:22:34.234Z,90.90
2019-01-17T13:24:09.155Z,91.00
2019-01-17T13:25:44.280Z,90.90
2019-01-17T13:27:19.149Z,91.00
2019-01-17T13:28:54.071Z,90.70
2019-01-17T13:30:29.122Z,90.90
2019-01-17T13:32:04.334Z,91.30
2019-01-17T13:33:39.412Z,90.90
2019-01-17T13:35:14.874Z,91.30
2019-01-17T13:36:49.667Z,91.80
2019-01-17T13:38:24.903Z,92.10
2019-01-17T13:40:00.016Z,91.90
2019-01-17T13:41:35.460Z,91.80
2019-01-17T13:43:10.281Z,91.90
2019-01-17T13:44:45.132Z,92.00
2019-01-17T13:46:20.340Z,91.80
2019-01-17T13:47:55.200Z,92.20
2019-01-17T13:49:30.005Z,92.30
2019-01-17T13:51:04.842Z,92.30
2019-01-17T13:52:40.040Z,92.60
2019-01-17T13:54:14.899Z,92.40
2019-01-17T13:55:49.720Z,92.40
2019-01-17T13:57:24.511Z,92.50
2019-01-17T13:58:59.304Z,92.50
2019-01-17T14:00:34.263Z,92.30
2019-01-17T14:02:09.599Z,92.70
2019-01-17T14:03:45.032Z,93.00
2019-01-17T14:05:20.367Z,92.60
2019-01-17T14:06:55.175Z,92.80
2019-01-17T14:08:30.655Z,92.40
2019-01-17T14:10:07.566Z,92.50
2019-01-17T14:11:42.537Z,92.60
2019-01-17T14:13:17.679Z,92.00
2019-01-17T14:14:52.466Z,91.70
2019-01-17T14:16:28.286Z,91.80
2019-01-17T14:18:03.090Z,91.80
2019-01-17T14:19:37.928Z,91.30
2019-01-17T14:21:12.952Z,91.70
2019-01-17T14:22:48.017Z,91.50
2019-01-17T14:24:22.949Z,91.80
2019-01-17T14:25:58.099Z,91.70
2019-01-17T14:27:33.221Z,91.90
2019-01-17T14:29:08.450Z,92.10
2019-01-17T14:30:43.381Z,92.10
2019-01-17T14:32:18.537Z,92.40
2019-01-17T14:33:53.376Z,92.30
2019-01-17T14:35:28.389Z,92.20
2019-01-17T14:37:03.596Z,92.10
2019-01-17T14:38:38.576Z,92.00
2019-01-17T14:40:14.685Z,92.30
2019-01-17T14:41:49.489Z,92.50
2019-01-17T14:43:24.870Z,92.40
2019-01-17T14:44:59.963Z,92.40
2019-01-17T14:46:35.197Z,92.70
2019-01-17T14:48:10.427Z,92.80
2019-01-17T14:49:45.283Z,92.70
2019-01-17T14:51:20.114Z,92.70
2019-01-17T14:52:56.122Z,92.90
2019-01-17T14:54:31.679Z,93.00
2019-01-17T14:56:06.904Z,92.90
2019-01-17T14:57:42.540Z,93.00
2019-01-17T14:59:17.471Z,93.10
2019-01-17T15:00:52.659Z,93.20
2019-01-17T15:02:28.056Z,93.20
2019-01-17T15:04:02.948Z,93.60
2019-01-17T15:05:37.756Z,93.20
2019-01-17T15:07:13.064Z,93.30
2019-01-17T15:08:48.686Z,93.10
2019-01-17T15:10:31.386Z,92.90
2019-01-17T15:12:06.654Z,92.70
2019-01-17T15:13:42.055Z,92.60
2019-01-17T15:15:17.478Z,92.70
2019-01-17T15:16:52.918Z,92.60
2019-01-17T15:18:27.723Z,92.60
2019-01-17T15:20:03.896Z,92.70
2019-01-17T15:21:39.456Z,92.80
2019-01-17T15:23:15.183Z,92.70
2019-01-17T15:24:50.039Z,92.90
2019-01-17T15:26:25.232Z,92.50
2019-01-17T15:28:00.060Z,92.50
2019-01-17T15:29:35.396Z,92.30
2019-01-17T15:31:10.471Z,92.50
2019-01-17T15:32:45.424Z,92.50
2019-01-17T15:34:20.341Z,92.60
2019-01-17T15:35:55.601Z,92.80
2019-01-17T15:37:31.151Z,92.80
2019-01-17T15:39:09.835Z,92.80
2019-01-17T15:40:44.700Z,93.00
2019-01-17T15:42:19.921Z,92.90
2019-01-17T15:43:55.622Z,92.90
2019-01-17T15:45:30.551Z,92.80
2019-01-17T15:47:05.735Z,93.00
2019-01-17T15:48:41.251Z,93.10
2019-01-17T15:50:16.903Z,93.10
2019-01-17T15:51:52.088Z,93.10
2019-01-17T15:53:27.301Z,93.00
2019-01-17T15:55:02.579Z,93.20
2019-01-17T15:56:37.769Z,93.10
2019-01-17T15:58:12.666Z,93.10
2019-01-17T15:59:48.617Z,93.30
2019-01-17T16:01:23.515Z,93.30
2019-01-17T16:02:59.327Z,93.20
2019-01-17T16:04:34.856Z,93.20
2019-01-17T16:06:09.934Z,93.00
2019-01-17T16:07:45.029Z,92.90
2019-01-17T16:09:20.396Z,92.90
2019-01-17T16:10:55.640Z,93.20
2019-01-17T16:12:30.498Z,92.90
2019-01-17T16:14:05.708Z,92.90
2019-01-17T16:15:42.202Z,92.90
2019-01-17T16:17:17.393Z,92.70
2019-01-17T16:18:52.512Z,92.70
2019-01-17T16:20:27.286Z,92.60
2019-01-17T16:22:02.086Z,92.60
2019-01-17T16:23:36.849Z,92.90
2019-01-17T16:25:13.869Z,92.90
2019-01-17T16:26:48.985Z,92.80
2019-01-17T16:28:23.833Z,92.60
2019-01-17T16:29:58.605Z,92.40
2019-01-17T16:31:33.657Z,92.40
2019-01-17T16:33:08.788Z,92.50
2019-01-17T16:34:43.556Z,92.40
2019-01-17T16:36:18.640Z,92.50
2019-01-17T16:37:53.604Z,92.60
2019-01-17T16:39:29.140Z,92.70
2019-01-17T16:41:04.153Z,92.90
2019-01-17T16:42:39.310Z,92.80
2019-01-17T16:44:14.165Z,93.10
2019-01-17T16:45:48.928Z,92.60
2019-01-17T16:47:24.349Z,92.80
2019-01-17T16:48:59.140Z,92.70
2019-01-17T16:50:33.994Z,92.60
2019-01-17T16:52:08.750Z,92.70
2019-01-17T16:53:43.528Z,92.80
2019-01-17T16:55:18.790Z,92.80
2019-01-17T16:56:53.867Z,92.50
2019-01-17T16:58:29.134Z,92.40
2019-01-17T17:00:05.493Z,91.90
2019-01-17T17:01:40.265Z,91.80
2019-01-17T17:03:15.450Z,91.80
2019-01-17T17:04:50.531Z,91.80
2019-01-17T17:06:25.436Z,91.90
2019-01-17T17:08:00.392Z,91.70
2019-01-17T17:09:35.468Z,91.70
2019-01-17T17:11:10.587Z,91.80
2019-01-17T17:12:45.629Z,92.00
2019-01-17T17:14:20.453Z,92.10
2019-01-17T17:15:55.579Z,92.00
2019-01-17T17:17:30.369Z,92.10
2019-01-17T17:19:05.142Z,92.40
2019-01-17T17:20:40.345Z,92.60
2019-01-17T17:22:15.544Z,92.50
2019-01-17T17:23:50.312Z,92.60
2019-01-17T17:25:25.734Z,92.60
2019-01-17T17:27:00.663Z,92.70
2019-01-17T17:28:35.731Z,92.60
2019-01-17T17:30:17.584Z,92.60
2019-01-17T17:31:52.392Z,92.60
2019-01-17T17:33:27.447Z,92.70
2019-01-17T17:35:02.213Z,92.50
2019-01-17T17:36:37.382Z,92.50
2019-01-17T17:38:12.616Z,92.50
2019-01-17T17:39:47.860Z,92.50
2019-01-17T17:41:22.735Z,92.40
2019-01-17T17:42:57.655Z,92.10
2019-01-17T17:44:32.435Z,91.90
2019-01-17T17:46:07.658Z,92.00
2019-01-17T17:47:42.508Z,91.80
2019-01-17T17:49:17.913Z,91.90
2019-01-17T17:50:52.691Z,91.80
2019-01-17T17:52:28.029Z,91.80
2019-01-17T17:54:03.096Z,91.80
2019-01-17T17:55:37.940Z,91.70
2019-01-17T17:57:12.730Z,91.60
2019-01-17T17:58:47.769Z,91.70
2019-01-17T18:00:35.920Z,91.70
2019-01-17T18:02:17.378Z,91.70
2019-01-17T18:03:52.195Z,91.80
2019-01-17T18:05:27.752Z,91.70
2019-01-17T18:07:02.882Z,91.40
2019-01-17T18:08:38.035Z,91.60
2019-01-17T18:10:15.036Z,91.30
2019-01-17T18:11:50.116Z,91.50
2019-01-17T18:13:25.477Z,91.50
2019-01-17T18:15:00.903Z,91.20
2019-01-17T18:16:35.704Z,91.30
2019-01-17T18:18:10.577Z,91.10
2019-01-17T18:19:45.342Z,91.40
2019-01-17T18:21:20.608Z,91.40
2019-01-17T18:22:55.720Z,91.40
2019-01-17T18:24:30.847Z,91.30
2019-01-17T18:26:06.290Z,91.10
2019-01-17T18:27:41.131Z,91.20
2019-01-17T18:29:16.213Z,91.30
2019-01-17T18:30:51.032Z,91.00
2019-01-17T18:32:25.895Z,91.50
2019-01-17T18:34:01.157Z,91.40
2019-01-17T18:35:36.403Z,91.00
2019-01-17T18:37:11.485Z,91.00
2019-01-17T18:38:46.429Z,90.80
2019-01-17T18:40:21.646Z,90.60
2019-01-17T18:41:56.557Z,90.70
2019-01-17T18:43:31.521Z,90.60
2019-01-17T18:45:09.994Z,90.70
2019-01-17T18:46:45.132Z,90.70
2019-01-17T18:48:20.368Z,90.90
2019-01-17T18:49:56.011Z,90.90
2019-01-17T18:51:31.242Z,90.90
2019-01-17T18:53:06.685Z,91.00
2019-01-17T18:54:41.925Z,91.20
2019-01-17T18:56:17.046Z,91.30
2019-01-17T18:57:52.184Z,91.30
2019-01-17T18:59:27.112Z,91.30
2019-01-17T19:01:01.978Z,91.40
2019-01-17T19:02:36.826Z,91.50
2019-01-17T19:04:11.626Z,91.50
2019-01-17T19:05:46.417Z,91.80
2019-01-17T19:07:21.188Z,91.50
2019-01-17T19:08:56.054Z,91.60
2019-01-17T19:10:31.193Z,91.70
2019-01-17T19:12:06.126Z,91.60
2019-01-17T19:13:41.221Z,91.70
2019-01-17T19:15:19.974Z,91.80
2019-01-17T19:16:55.076Z,92.00
2019-01-17T19:18:29.833Z,92.00
2019-01-17T19:20:07.074Z,92.10
2019-01-17T19:21:42.248Z,92.20
2019-01-17T19:23:17.329Z,92.40
2019-01-17T19:24:52.458Z,92.80
2019-01-17T19:26:27.899Z,93.20
2019-01-17T19:28:02.676Z,94.40
2019-01-17T19:29:38.472Z,95.50
2019-01-17T19:31:13.264Z,96.70
2019-01-17T19:32:48.207Z,97.10
2019-01-17T19:34:23.397Z,97.70
2019-01-17T19:35:58.686Z,98.40
2019-01-17T19:37:33.913Z,98.40
2019-01-17T19:39:11.425Z,98.20
2019-01-17T19:40:46.269Z,98.80
2019-01-17T19:42:21.468Z,98.80
2019-01-17T19:43:56.892Z,99.10
2019-01-17T19:45:31.739Z,98.90
2019-01-17T19:47:06.770Z,98.70
2019-01-17T19:48:41.616Z,98.80
2019-01-17T19:50:30.021Z,98.80
2019-01-17T19:52:05.648Z,99.20
2019-01-17T19:53:40.775Z,99.70
2019-01-17T19:55:16.324Z,99.90
2019-01-17T19:56:51.100Z,99.90
2019-01-17T19:58:29.053Z,99.90
2019-01-17T20:00:02.486Z,99.90
2019-01-17T20:01:37.369Z,99.90
2019-01-17T20:03:12.133Z,99.90
2019-01-17T20:04:46.981Z,99.90
2019-01-17T20:06:21.923Z,99.90
2019-01-17T20:07:56.676Z,99.90
2019-01-17T20:09:31.794Z,99.90
2019-01-17T20:11:06.641Z,99.90
2019-01-17T20:12:41.450Z,99.90
2019-01-17T20:14:16.549Z,99.90
2019-01-17T20:15:51.300Z,99.90
2019-01-17T20:17:26.591Z,99.90
2019-01-17T20:19:01.364Z,99.90
2019-01-17T20:20:39.286Z,99.90
2019-01-17T20:22:14.105Z,99.90
2019-01-17T20:23:49.108Z,99.90
2019-01-17T20:25:23.940Z,99.90
2019-01-17T20:26:59.280Z,99.90
2019-01-17T20:28:35.823Z,99.90
2019-01-17T20:30:16.537Z,99.90
2019-01-17T20:31:51.295Z,99.90
2019-01-17T20:33:26.099Z,99.90
2019-01-17T20:35:00.936Z,99.90
2019-01-17T20:36:35.701Z,99.90
2019-01-17T20:38:10.454Z,99.90
2019-01-17T20:39:45.234Z,99.90
2019-01-17T20:41:20.085Z,99.90
2019-01-17T20:42:55.246Z,99.80
2019-01-17T20:44:30.264Z,99.70
2019-01-17T20:46:05.131Z,99.70
2019-01-17T20:47:40.014Z,99.50
2019-01-17T20:49:14.808Z,99.50
2019-01-17T20:50:49.893Z,99.60
2019-01-17T20:52:24.909Z,99.40
2019-01-17T20:53:59.751Z,99.40
2019-01-17T20:55:34.623Z,99.20
2019-01-17T20:57:10.162Z,99.20
2019-01-17T20:58:45.192Z,99.00
2019-01-17T21:00:28.329Z,99.00
2019-01-17T21:02:19.991Z,99.10
2019-01-17T21:03:55.068Z,98.80
2019-01-17T21:05:30.054Z,98.80
2019-01-17T21:07:05.794Z,99.10
2019-01-17T21:08:40.784Z,98.80
2019-01-17T21:10:16.180Z,98.90
2019-01-17T21:11:51.196Z,98.70
2019-01-17T21:13:25.967Z,98.80
2019-01-17T21:15:01.037Z,98.80
2019-01-17T21:16:36.065Z,98.70
2019-01-17T21:18:10.852Z,98.70
2019-01-17T21:19:45.608Z,98.70